Time;durP1;ratioP1;P1;durP2;ratioP2;P2;SDS_P1;SDS_P2;PMS_P1;PMS_P2;Temp;Humidity;BMP_temperature;BMP_pressure;BME280_temperature;BME280_humidity;BME280_pressure;Samples;Min_cycle;Max_cycle;Signal;HPM_P1;HPM_P2
2023/03/09 00:02:47;;;;;;;8.95;4.43;;;;;;;0.68;100.00;99034.72;6277037;28;20049;-75
2023/03/09 00:05:55;;;;;;;10.07;4.68;;;;;;;0.63;100.00;99029.75;6276696;28;20049;-75
2023/03/09 00:08:56;;;;;;;6.57;3.85;;;;;;;0.63;100.00;99034.91;6276433;28;20441;-75
2023/03/09 00:11:58;;;;;;;7.05;3.78;;;;;;;0.66;100.00;99032.22;6276686;28;20064;-75
2023/03/09 00:14:59;;;;;;;7.97;3.85;;;;;;;0.61;100.00;99022.97;6276316;28;20052;-75
2023/03/09 00:18:00;;;;;;;6.05;3.83;;;;;;;0.48;100.00;99031.22;6276444;28;20452;-75
2023/03/09 00:21:04;;;;;;;6.15;3.30;;;;;;;0.43;100.00;99027.97;6276302;28;20366;-75
2023/03/09 00:24:07;;;;;;;6.85;4.20;;;;;;;0.45;100.00;99033.06;6276150;28;20356;-75
2023/03/09 00:27:08;;;;;;;7.40;4.43;;;;;;;0.37;100.00;99027.38;6299724;28;20356;-75
2023/03/09 00:30:11;;;;;;;9.55;4.40;;;;;;;0.40;100.00;99024.66;6301095;28;20048;-75
2023/03/09 00:33:12;;;;;;;9.98;4.28;;;;;;;0.45;100.00;99026.16;6299146;28;20048;-75
2023/03/09 00:36:16;;;;;;;7.00;3.63;;;;;;;0.32;100.00;99011.19;6300795;28;20048;-75
2023/03/09 00:39:17;;;;;;;8.30;3.80;;;;;;;0.40;100.00;99006.56;6300721;28;20356;-75
2023/03/09 00:42:19;;;;;;;5.65;3.70;;;;;;;0.32;100.00;98999.16;6301006;28;20131;-75
2023/03/09 00:45:22;;;;;;;9.60;4.10;;;;;;;0.47;100.00;99000.28;6300623;28;20040;-75
2023/03/09 00:48:25;;;;;;;7.05;3.40;;;;;;;0.40;100.00;98994.50;6300360;28;20059;-75
2023/03/09 00:51:27;;;;;;;12.45;5.22;;;;;;;0.31;100.00;98996.59;6300560;28;20063;-75
2023/03/09 00:54:29;;;;;;;7.75;3.22;;;;;;;0.32;100.00;98990.53;6300394;28;20075;-75
2023/03/09 00:57:30;;;;;;;8.35;3.28;;;;;;;0.24;100.00;99004.59;6298871;28;20044;-75
2023/03/09 01:00:33;;;;;;;8.50;3.70;;;;;;;0.27;100.00;98995.03;6299859;28;20049;-75
2023/03/09 01:03:35;;;;;;;5.97;3.42;;;;;;;0.27;100.00;99007.97;6300569;28;20045;-75
2023/03/09 01:06:37;;;;;;;7.90;4.03;;;;;;;0.27;100.00;99010.53;6300048;28;20060;-75
2023/03/09 01:09:39;;;;;;;5.68;3.47;;;;;;;0.31;100.00;99007.78;6300098;28;20045;-76
2023/03/09 01:12:40;;;;;;;11.45;4.07;;;;;;;0.33;100.00;99007.75;6300266;28;20045;-75
2023/03/09 01:15:41;;;;;;;5.57;3.13;;;;;;;0.34;100.00;99017.16;6300058;28;20053;-75
2023/03/09 01:18:43;;;;;;;8.70;4.35;;;;;;;0.21;100.00;99020.22;6300132;28;20044;-76
2023/03/09 01:21:47;;;;;;;9.50;4.32;;;;;;;0.28;100.00;99009.66;6300012;28;20478;-75
2023/03/09 01:24:48;;;;;;;8.07;3.67;;;;;;;0.32;100.00;99012.06;6300141;28;20045;-75
2023/03/09 01:27:51;;;;;;;8.75;4.22;;;;;;;0.40;100.00;99014.31;6297975;28;20052;-75
2023/03/09 01:30:53;;;;;;;4.82;2.70;;;;;;;0.23;100.00;99010.69;6300170;28;20048;-75
2023/03/09 01:33:54;;;;;;;4.10;3.25;;;;;;;0.23;100.00;99004.69;6299916;28;20055;-75
2023/03/09 01:36:57;;;;;;;7.40;4.10;;;;;;;0.26;100.00;99007.13;6299880;28;20045;-75
2023/03/09 01:39:58;;;;;;;6.05;3.80;;;;;;;0.20;100.00;98999.63;6299854;28;20074;-75
2023/03/09 01:43:02;;;;;;;5.32;2.92;;;;;;;0.29;100.00;99001.84;6299879;28;20044;-75
2023/03/09 01:46:31;;;;;;;6.70;2.70;;;;;;;0.33;100.00;98994.81;6299646;28;20053;-75
2023/03/09 01:49:37;;;;;;;4.95;3.00;;;;;;;0.30;100.00;98993.19;6292185;28;20049;-75
2023/03/09 01:52:43;;;;;;;6.38;3.35;;;;;;;0.35;100.00;98993.00;6299759;28;20051;-75
2023/03/09 01:55:47;;;;;;;4.97;2.92;;;;;;;0.38;100.00;98991.16;6298809;28;20049;-75
2023/03/09 01:58:51;;;;;;;8.23;3.35;;;;;;;0.33;100.00;98993.06;6299412;28;20444;-76
2023/03/09 02:01:53;;;;;;;4.90;3.13;;;;;;;0.30;100.00;98985.44;6299670;28;20329;-75
2023/03/09 02:04:59;;;;;;;7.25;4.32;;;;;;;0.29;100.00;98991.50;6299439;28;20053;-75
2023/03/09 02:08:03;;;;;;;8.48;3.78;;;;;;;0.26;100.00;98983.88;6299356;28;20040;-75
2023/03/09 02:11:08;;;;;;;7.47;3.13;;;;;;;0.32;100.00;98990.53;6301000;28;20349;-75
2023/03/09 02:14:10;;;;;;;5.90;3.40;;;;;;;0.31;100.00;99000.03;6304213;28;20044;-75
2023/03/09 02:17:13;;;;;;;5.35;3.78;;;;;;;0.29;100.00;98991.50;6304112;28;20056;-76
2023/03/09 02:20:20;;;;;;;5.70;2.72;;;;;;;0.31;100.00;98988.84;6303907;28;20051;-76
2023/03/09 02:23:35;;;;;;;6.03;3.50;;;;;;;0.22;100.00;98979.72;6304187;28;20055;-76
2023/03/09 02:26:41;;;;;;;6.95;3.88;;;;;;;0.32;100.00;98972.44;6303638;28;20063;-76
2023/03/09 02:29:44;;;;;;;5.60;2.83;;;;;;;0.35;100.00;98974.91;6303944;28;20052;-75
2023/03/09 02:32:45;;;;;;;8.27;4.57;;;;;;;0.26;100.00;98976.13;6303687;28;20421;-76
2023/03/09 02:35:47;;;;;;;5.53;3.25;;;;;;;0.32;100.00;98960.41;6303642;28;20053;-76
2023/03/09 02:38:48;;;;;;;9.52;3.55;;;;;;;0.22;100.00;98965.06;6303423;28;20357;-76
2023/03/09 02:41:51;;;;;;;8.15;3.42;;;;;;;0.23;100.00;98977.09;6303806;28;20066;-75
2023/03/09 02:44:54;;;;;;;4.13;3.15;;;;;;;0.24;100.00;98985.69;6303357;28;20067;-76
2023/03/09 02:47:56;;;;;;;10.40;3.83;;;;;;;0.20;100.00;98991.88;6303261;28;20044;-75
2023/03/09 02:50:57;;;;;;;4.38;2.95;;;;;;;0.25;100.00;98987.38;6303379;28;20064;-76
2023/03/09 02:53:59;;;;;;;7.07;2.90;;;;;;;0.26;100.00;98996.78;6303469;28;20045;-76
2023/03/09 02:57:00;;;;;;;7.70;3.38;;;;;;;0.29;100.00;99001.84;6301411;28;20436;-75
2023/03/09 03:00:04;;;;;;;9.85;4.30;;;;;;;0.28;100.00;99005.34;6303340;28;20056;-75
2023/03/09 03:03:08;;;;;;;11.05;3.53;;;;;;;0.21;100.00;99007.31;6303146;28;20056;-76
2023/03/09 03:06:09;;;;;;;8.77;3.70;;;;;;;0.27;100.00;99011.38;6302968;28;20128;-75
2023/03/09 03:09:10;;;;;;;8.60;4.10;;;;;;;0.33;100.00;99028.41;6302915;28;20052;-76
2023/03/09 03:12:12;;;;;;;8.50;4.13;;;;;;;0.38;100.00;99018.72;6302833;28;20048;-76
2023/03/09 03:15:15;;;;;;;7.18;3.05;;;;;;;0.34;100.00;99028.34;6302789;28;20048;-76
2023/03/09 03:18:17;;;;;;;9.00;4.18;;;;;;;0.35;100.00;99034.34;6302535;28;20056;-75
2023/03/09 03:21:18;;;;;;;5.22;3.08;;;;;;;0.33;100.00;99025.81;6302349;28;20056;-75
2023/03/09 03:24:19;;;;;;;8.73;4.07;;;;;;;0.37;100.00;99028.22;6302460;28;20055;-76
2023/03/09 03:27:21;;;;;;;9.68;4.28;;;;;;;0.33;100.00;99024.06;6300995;28;20048;-76
2023/03/09 03:30:24;;;;;;;9.48;4.60;;;;;;;0.36;100.00;99034.25;6302099;28;20052;-76
2023/03/09 03:33:30;;;;;;;11.02;4.05;;;;;;;0.35;100.00;99040.34;6302464;28;20421;-76
2023/03/09 03:36:31;;;;;;;9.45;4.32;;;;;;;0.46;100.00;99052.84;6298611;28;20053;-76
2023/03/09 03:39:33;;;;;;;9.48;4.25;;;;;;;0.43;100.00;99063.31;6301992;28;20052;-75
2023/03/09 03:42:34;;;;;;;8.40;3.90;;;;;;;0.36;100.00;99060.09;6278673;28;20052;-76
2023/03/09 03:45:37;;;;;;;9.32;4.00;;;;;;;0.36;100.00;99073.03;6291885;28;20071;-75
2023/03/09 03:48:38;;;;;;;8.98;5.13;;;;;;;0.32;100.00;99079.25;6301517;28;20428;-76
2023/03/09 03:51:39;;;;;;;13.30;4.57;;;;;;;0.34;100.00;99080.00;6286004;28;20049;-76
2023/03/09 03:54:41;;;;;;;25.23;5.53;;;;;;;0.31;100.00;99090.44;6276661;28;20045;-76
2023/03/09 03:57:42;;;;;;;14.88;4.70;;;;;;;0.32;100.00;99080.94;6284606;28;20360;-76
2023/03/09 04:00:45;;;;;;;10.43;5.30;;;;;;;0.38;100.00;99086.75;6293117;28;20049;-76
2023/03/09 04:03:46;;;;;;;10.20;5.00;;;;;;;0.36;100.00;99085.94;6293348;28;20048;-76
2023/03/09 04:06:48;;;;;;;11.00;5.38;;;;;;;0.38;100.00;99093.66;6297221;28;20059;-76
2023/03/09 04:09:49;;;;;;;10.88;5.35;;;;;;;0.38;100.00;99098.81;6301016;28;20049;-76
2023/03/09 04:12:50;;;;;;;11.50;5.00;;;;;;;0.49;100.00;99107.00;6291750;28;20049;-76
2023/03/09 04:15:53;;;;;;;12.02;5.40;;;;;;;0.45;100.00;99103.66;6300049;28;20048;-76
2023/03/09 04:18:54;;;;;;;7.75;4.68;;;;;;;0.47;100.00;99112.22;6276361;28;20060;-76
2023/03/09 04:21:56;;;;;;;11.07;5.00;;;;;;;0.43;100.00;99109.81;6276225;28;20060;-76
2023/03/09 04:24:57;;;;;;;9.80;4.72;;;;;;;0.54;100.00;99125.75;6277503;28;20045;-76
2023/03/09 04:27:58;;;;;;;9.93;5.15;;;;;;;0.49;100.00;99125.06;6289415;28;20056;-76
2023/03/09 04:31:01;;;;;;;11.88;4.93;;;;;;;0.56;100.00;99120.53;6288869;28;20056;-76
2023/03/09 04:34:02;;;;;;;15.23;5.63;;;;;;;0.60;100.00;99135.03;6286266;28;20353;-76
2023/03/09 04:37:03;;;;;;;8.85;4.18;;;;;;;0.53;100.00;99128.38;6283123;28;20052;-76
2023/03/09 04:40:05;;;;;;;12.38;5.38;;;;;;;0.54;100.00;99130.91;6289829;28;20047;-76
2023/03/09 04:43:07;;;;;;;9.38;5.15;;;;;;;0.56;100.00;99136.03;6288578;28;20044;-76
2023/03/09 04:46:10;;;;;;;12.63;4.80;;;;;;;0.44;100.00;99137.34;6285516;28;20067;-76
2023/03/09 04:49:11;;;;;;;14.55;5.63;;;;;;;0.38;100.00;99125.50;6285681;28;20048;-76
2023/03/09 04:52:13;;;;;;;10.25;5.10;;;;;;;0.40;100.00;99123.69;6281954;28;20044;-76
2023/03/09 04:55:14;;;;;;;11.07;5.40;;;;;;;0.45;100.00;99118.34;6282171;28;20044;-77
2023/03/09 04:58:15;;;;;;;11.55;5.10;;;;;;;0.44;100.00;99116.66;6284589;28;20065;-77
2023/03/09 05:01:18;;;;;;;13.00;6.10;;;;;;;0.45;100.00;99113.16;6283706;28;20040;-77
2023/03/09 05:04:20;;;;;;;13.65;5.90;;;;;;;0.47;100.00;99119.97;6281213;28;20036;-76
2023/03/09 05:07:21;;;;;;;12.73;7.05;;;;;;;0.50;100.00;99134.53;6280356;28;20361;-77
2023/03/09 05:10:22;;;;;;;13.20;4.75;;;;;;;0.46;100.00;99157.06;6281716;28;20449;-76
2023/03/09 05:13:24;;;;;;;10.93;5.10;;;;;;;0.50;100.00;99165.56;6284048;28;20044;-77
2023/03/09 05:16:26;;;;;;;12.60;6.18;;;;;;;0.48;100.00;99168.16;6284795;28;20045;-77
2023/03/09 05:19:28;;;;;;;9.38;4.03;;;;;;;0.49;100.00;99177.59;6286142;28;20057;-76
2023/03/09 05:22:29;;;;;;;12.75;5.40;;;;;;;0.52;100.00;99179.25;6281291;28;20092;-77
2023/03/09 05:25:31;;;;;;;13.88;5.60;;;;;;;0.52;100.00;99179.25;6283301;28;20048;-77
2023/03/09 05:28:33;;;;;;;11.60;5.38;;;;;;;0.54;100.00;99181.75;6281263;28;20060;-76
2023/03/09 05:31:35;;;;;;;10.82;4.80;;;;;;;0.52;100.00;99179.25;6283240;28;20048;-77
2023/03/09 05:34:37;;;;;;;17.08;6.93;;;;;;;0.53;100.00;99182.66;6283833;28;20452;-76
2023/03/09 05:37:38;;;;;;;14.25;5.45;;;;;;;0.52;100.00;99191.31;6288015;28;20060;-76
2023/03/09 05:40:40;;;;;;;11.10;5.60;;;;;;;0.60;100.00;99204.81;6288685;28;20072;-76
2023/03/09 05:43:42;;;;;;;17.30;6.35;;;;;;;0.62;100.00;99209.00;6296082;28;20045;-76
2023/03/09 05:46:44;;;;;;;15.60;6.78;;;;;;;0.58;100.00;99202.25;6303912;28;20060;-76
2023/03/09 05:49:48;;;;;;;11.45;5.85;;;;;;;0.58;100.00;99201.41;6304508;28;20040;-76
2023/03/09 05:52:50;;;;;;;10.48;4.90;;;;;;;0.66;100.00;99207.16;6304678;28;20056;-76
2023/03/09 05:55:52;;;;;;;17.05;6.18;;;;;;;0.62;100.00;99210.75;6304164;28;20356;-76
2023/03/09 05:58:56;;;;;;;13.77;5.95;;;;;;;0.65;100.00;99224.41;6302652;28;20463;-76
2023/03/09 06:01:58;;;;;;;13.13;6.70;;;;;;;0.63;100.00;99215.00;6304294;28;20048;-76
2023/03/09 06:05:00;;;;;;;12.07;5.70;;;;;;;0.53;100.00;99206.75;6304523;28;20048;-76
2023/03/09 06:08:01;;;;;;;12.32;5.50;;;;;;;0.54;100.00;99205.00;6303917;28;20139;-76
2023/03/09 06:11:03;;;;;;;13.50;6.20;;;;;;;0.61;100.00;99211.66;6302080;28;20072;-76
2023/03/09 06:14:04;;;;;;;10.35;5.50;;;;;;;0.58;100.00;99219.50;6281439;28;20384;-77
2023/03/09 06:17:07;;;;;;;12.77;7.05;;;;;;;0.65;100.00;99239.06;6303965;28;20056;-76
2023/03/09 06:20:09;;;;;;;13.45;6.63;;;;;;;0.65;100.00;99239.91;6300902;28;20056;-76
2023/03/09 06:23:11;;;;;;;13.45;5.75;;;;;;;0.58;100.00;99238.44;6298924;28;20052;-75
2023/03/09 06:26:13;;;;;;;12.82;5.65;;;;;;;0.57;100.00;99236.78;6303639;28;20052;-75
2023/03/09 06:29:14;;;;;;;14.73;6.10;;;;;;;0.56;100.00;99237.69;6300096;28;20037;-75
2023/03/09 06:32:17;;;;;;;11.88;5.03;;;;;;;0.53;100.00;99240.34;6299600;28;20051;-76
2023/03/09 06:35:18;;;;;;;14.43;6.03;;;;;;;0.60;100.00;99239.25;6303235;28;20340;-76
2023/03/09 06:38:20;;;;;;;11.48;4.88;;;;;;;0.49;100.00;99236.19;6298836;28;20041;-76
2023/03/09 06:41:29;;;;;;;11.32;5.70;;;;;;;0.54;100.00;99233.44;6278633;28;20127;-76
2023/03/09 06:44:30;;;;;;;15.60;6.07;;;;;;;0.60;100.00;99253.91;6278669;28;20053;-75
2023/03/09 06:47:33;;;;;;;12.50;5.05;;;;;;;0.67;100.00;99270.88;6278295;28;20041;-76
2023/03/09 06:50:34;;;;;;;12.70;5.55;;;;;;;0.65;100.00;99267.50;6278283;28;20049;-76
2023/03/09 06:53:35;;;;;;;56.25;16.70;;;;;;;0.67;100.00;99276.88;6278370;28;20041;-76
2023/03/09 06:56:37;;;;;;;12.00;5.22;;;;;;;0.61;100.00;99284.03;6277050;28;20060;-76
2023/03/09 06:59:38;;;;;;;11.70;5.65;;;;;;;0.67;100.00;99292.38;6285695;28;20059;-76
2023/03/09 07:02:41;;;;;;;11.75;5.90;;;;;;;0.73;100.00;99305.13;6302546;28;20052;-76
2023/03/09 07:05:42;;;;;;;11.05;4.43;;;;;;;0.73;100.00;99309.44;6302825;28;20045;-76
2023/03/09 07:08:44;;;;;;;11.60;5.22;;;;;;;0.72;100.00;99312.91;6302571;28;20055;-76
2023/03/09 07:11:46;;;;;;;11.88;5.78;;;;;;;0.74;100.00;99337.81;6294484;28;20330;-76
2023/03/09 07:14:48;;;;;;;10.60;5.25;;;;;;;0.73;100.00;99346.47;6302415;28;20052;-76
2023/03/09 07:17:50;;;;;;;15.07;5.95;;;;;;;0.74;100.00;99344.75;6302696;28;20048;-76
2023/03/09 07:20:52;;;;;;;12.50;5.57;;;;;;;0.76;100.00;99342.91;6302474;28;20055;-76
2023/03/09 07:23:53;;;;;;;8.27;4.43;;;;;;;0.74;100.00;99368.84;6302693;28;20135;-76
2023/03/09 07:26:54;;;;;;;9.35;5.05;;;;;;;0.85;100.00;99371.03;6302161;28;20052;-76
2023/03/09 07:29:56;;;;;;;11.52;5.60;;;;;;;0.82;100.00;99378.06;6300849;28;20056;-76
2023/03/09 07:33:00;;;;;;;8.38;4.95;;;;;;;0.88;100.00;99373.53;6302138;28;20051;-76
2023/03/09 07:36:03;;;;;;;10.73;4.85;;;;;;;0.84;100.00;99371.94;6301798;28;20040;-76
2023/03/09 07:39:04;;;;;;;11.70;5.28;;;;;;;0.85;100.00;99365.88;6302270;28;20053;-76
2023/03/09 07:42:06;;;;;;;12.63;5.35;;;;;;;0.77;100.00;99365.28;6301815;28;20055;-79
2023/03/09 07:45:08;;;;;;;7.70;4.10;;;;;;;0.88;100.00;99370.94;6301792;28;20052;-76
2023/03/09 07:48:12;;;;;;;7.00;4.30;;;;;;;0.95;100.00;99376.72;6301625;28;20052;-76
2023/03/09 07:51:14;;;;;;;13.10;5.93;;;;;;;0.94;100.00;99385.38;6301954;28;20045;-76
2023/03/09 07:54:16;;;;;;;11.23;4.75;;;;;;;0.99;100.00;99397.25;6301417;28;20342;-76
2023/03/09 07:57:18;;;;;;;9.00;4.35;;;;;;;0.95;100.00;99390.53;6288952;28;20357;-76
2023/03/09 08:00:22;;;;;;;8.70;4.40;;;;;;;0.92;100.00;99387.19;6282410;28;20121;-76
2023/03/09 08:03:25;;;;;;;11.60;4.93;;;;;;;0.94;100.00;99390.56;6301657;28;20055;-77
2023/03/09 08:06:27;;;;;;;9.10;4.40;;;;;;;0.99;100.00;99402.41;6285461;28;20049;-75
2023/03/09 08:09:28;;;;;;;7.97;4.35;;;;;;;0.86;100.00;99400.31;6284238;28;20188;-75
2023/03/09 08:12:30;;;;;;;11.55;4.78;;;;;;;0.90;100.00;99395.00;6298981;28;20052;-76
2023/03/09 08:15:31;;;;;;;8.75;4.32;;;;;;;0.99;100.00;99391.22;6287512;28;20049;-77
2023/03/09 08:18:34;;;;;;;11.70;4.38;;;;;;;1.04;100.00;99399.66;6284485;28;20131;-76
2023/03/09 08:21:37;;;;;;;11.00;5.43;;;;;;;1.09;100.00;99407.25;6276059;28;20049;-77
2023/03/09 08:24:38;;;;;;;11.80;5.07;;;;;;;1.17;100.00;99405.25;6299909;28;20051;-78
2023/03/09 08:27:41;;;;;;;7.75;4.45;;;;;;;1.23;100.00;99412.81;6300703;28;20056;-77
2023/03/09 08:30:42;;;;;;;9.18;5.00;;;;;;;1.17;100.00;99411.25;6299292;28;20059;-76
2023/03/09 08:33:45;;;;;;;9.85;4.38;;;;;;;1.24;100.00;99407.56;6300514;28;20443;-77
2023/03/09 08:36:46;;;;;;;10.85;4.82;;;;;;;1.22;100.00;99411.09;6284064;28;20135;-74
2023/03/09 08:39:47;;;;;;;11.07;5.30;;;;;;;1.30;100.00;99413.41;6284220;28;20064;-75
2023/03/09 08:42:49;;;;;;;10.25;4.03;;;;;;;1.32;100.00;99411.59;6291883;28;20049;-76
2023/03/09 08:45:52;;;;;;;8.27;4.45;;;;;;;1.32;100.00;99415.06;6276172;28;20052;-74
2023/03/09 08:48:56;;;;;;;9.48;4.05;;;;;;;1.37;100.00;99410.53;6300125;28;20423;-74
2023/03/09 08:51:57;;;;;;;8.43;3.75;;;;;;;1.35;100.00;99414.91;6300564;28;20044;-75
2023/03/09 08:54:58;;;;;;;9.50;4.47;;;;;;;1.42;100.00;99424.16;6300045;28;20048;-75
2023/03/09 08:58:00;;;;;;;8.20;3.95;;;;;;;1.44;100.00;99429.25;6300270;28;20049;-74
2023/03/09 09:01:02;;;;;;;11.73;4.75;;;;;;;1.49;100.00;99430.78;6298512;28;20055;-76
2023/03/09 09:04:05;;;;;;;9.68;4.40;;;;;;;1.52;100.00;99443.59;6300238;28;20087;-75
2023/03/09 09:07:07;;;;;;;19.17;5.80;;;;;;;1.58;100.00;99454.63;6280539;28;20365;-75
2023/03/09 09:10:10;;;;;;;8.93;4.60;;;;;;;1.56;100.00;99465.06;6275122;28;20049;-75
2023/03/09 09:13:12;;;;;;;10.07;3.35;;;;;;;1.52;100.00;99468.66;6279395;28;20052;-74
2023/03/09 09:16:15;;;;;;;9.30;4.28;;;;;;;1.60;100.00;99470.97;6279324;28;20072;-77
2023/03/09 09:19:17;;;;;;;10.90;4.38;;;;;;;1.53;100.00;99466.00;6295387;28;20055;-75
2023/03/09 09:22:19;;;;;;;8.75;3.40;;;;;;;1.55;100.00;99475.47;6287082;28;20048;-76
2023/03/09 09:25:20;;;;;;;9.43;3.30;;;;;;;1.48;100.00;99477.44;6274864;28;20040;-76
2023/03/09 09:28:21;;;;;;;7.25;4.03;;;;;;;1.51;100.00;99483.34;6296258;28;20048;-75
2023/03/09 09:31:23;;;;;;;10.68;4.63;;;;;;;1.55;100.00;99483.25;6298444;28;20047;-75
2023/03/09 09:34:25;;;;;;;9.82;4.38;;;;;;;1.64;100.00;99495.84;6294256;28;20067;-75
2023/03/09 09:37:28;;;;;;;12.50;3.95;;;;;;;1.61;100.00;99494.22;6299832;28;20131;-75
2023/03/09 09:40:29;;;;;;;9.23;3.70;;;;;;;1.62;100.00;99500.22;6299223;28;20048;-75
2023/03/09 09:43:31;;;;;;;11.32;5.18;;;;;;;1.75;100.00;99504.06;6289765;28;20056;-74
2023/03/09 09:46:36;;;;;;;16.77;6.78;;;;;;;1.81;100.00;99503.81;6288316;28;20076;-74
2023/03/09 09:49:44;;;;;;;9.20;4.57;;;;;;;1.94;100.00;99520.59;6287228;28;20048;-75
2023/03/09 09:52:51;;;;;;;8.18;4.22;;;;;;;1.98;100.00;99510.94;6286322;28;20056;-77
2023/03/09 09:55:54;;;;;;;7.40;3.58;;;;;;;2.01;100.00;99505.66;6286852;28;20447;-80
2023/03/09 09:59:00;;;;;;;11.27;4.47;;;;;;;1.92;100.00;99519.81;6287424;28;20060;-78
2023/03/09 10:02:19;;;;;;;10.57;3.88;;;;;;;1.95;100.00;99518.84;6287242;28;20441;-79
2023/03/09 10:05:27;;;;;;;9.37;5.20;;;;;;;2.02;100.00;99528.06;6286439;28;20433;-78
2023/03/09 10:08:37;;;;;;;7.38;4.35;;;;;;;2.00;100.00;99528.16;6288071;28;20052;-78
2023/03/09 10:11:43;;;;;;;7.85;4.15;;;;;;;1.87;100.00;99526.06;6286870;28;20049;-77
2023/03/09 10:14:51;;;;;;;10.48;4.47;;;;;;;1.91;100.00;99531.09;6290170;28;20041;-78
2023/03/09 10:17:56;;;;;;;7.60;3.72;;;;;;;1.87;100.00;99539.03;6291606;28;20052;-77
2023/03/09 10:21:01;;;;;;;8.48;3.78;;;;;;;2.01;100.00;99536.75;6289561;28;20049;-78
2023/03/09 10:24:17;;;;;;;8.20;3.33;;;;;;;2.02;100.00;99535.84;6281166;28;20056;-78
2023/03/09 10:27:23;;;;;;;23.55;6.82;;;;;;;2.04;100.00;99528.84;6287616;28;20045;-77
2023/03/09 10:30:35;;;;;;;13.07;5.20;;;;;;;2.06;100.00;99540.00;6288465;28;20041;-77
2023/03/09 10:33:43;;;;;;;23.23;9.32;;;;;;;2.18;100.00;99534.38;6286097;28;20048;-78
2023/03/09 10:36:58;;;;;;;11.80;5.35;;;;;;;2.31;100.00;99529.53;6293737;28;20183;-77
2023/03/09 10:40:03;;;;;;;13.00;3.85;;;;;;;2.33;100.00;99537.28;6288906;28;20060;-78
2023/03/09 10:43:05;;;;;;;11.25;4.72;;;;;;;2.13;100.00;99543.19;6303016;28;20145;-78
2023/03/09 10:46:14;;;;;;;11.32;4.88;;;;;;;2.13;100.00;99545.78;6291975;28;20049;-77
2023/03/09 10:49:15;;;;;;;9.87;4.40;;;;;;;2.13;100.00;99556.16;6290948;28;20175;-78
2023/03/09 10:52:19;;;;;;;16.08;6.18;;;;;;;2.20;100.00;99552.44;6294684;28;20346;-77
2023/03/09 10:55:34;;;;;;;12.70;4.47;;;;;;;2.27;100.00;99559.94;6277867;28;20466;-78
2023/03/09 10:58:35;;;;;;;12.23;6.10;;;;;;;2.36;100.00;99553.53;6293056;28;20464;-78
2023/03/09 11:01:38;;;;;;;8.68;4.30;;;;;;;2.36;100.00;99571.66;6302115;28;20131;-78
2023/03/09 11:04:40;;;;;;;11.13;5.10;;;;;;;2.30;100.00;99577.09;6302652;28;20048;-77
2023/03/09 11:07:50;;;;;;;8.15;4.20;;;;;;;2.29;100.00;99594.41;6302595;28;20048;-77
2023/03/09 11:11:01;;;;;;;10.27;5.45;;;;;;;2.31;100.00;99590.91;6302944;28;20087;-77
2023/03/09 11:14:03;;;;;;;12.00;5.38;;;;;;;2.30;100.00;99605.63;6292233;28;20060;-77
2023/03/09 11:17:05;;;;;;;8.95;4.55;;;;;;;2.35;100.00;99595.06;6277542;28;20041;-76
2023/03/09 11:20:30;;;;;;;19.65;7.60;;;;;;;2.33;100.00;99596.88;6288791;28;20060;-77
2023/03/09 11:23:39;;;;;;;14.02;6.32;;;;;;;2.25;100.00;99605.78;6294204;28;20052;-77
2023/03/09 11:26:45;;;;;;;11.13;4.85;;;;;;;2.24;100.00;99606.69;6294787;28;20053;-77
2023/03/09 11:29:53;;;;;;;13.45;6.10;;;;;;;2.32;100.00;99600.38;6285907;28;20433;-77
2023/03/09 11:32:55;;;;;;;10.02;5.45;;;;;;;2.36;100.00;99602.78;6293175;28;20448;-78
2023/03/09 11:35:59;;;;;;;12.55;6.57;;;;;;;2.39;100.00;99596.66;6290859;28;20586;-78
2023/03/09 11:39:04;;;;;;;14.38;5.28;;;;;;;2.42;100.00;99612.94;6283375;28;20052;-78
2023/03/09 11:42:11;;;;;;;11.00;4.70;;;;;;;2.46;100.00;99616.25;6281804;28;20349;-77
2023/03/09 11:45:17;;;;;;;15.30;5.68;;;;;;;2.45;100.00;99599.88;6288318;28;20052;-77
2023/03/09 11:48:23;;;;;;;13.00;6.10;;;;;;;2.43;100.00;99606.84;6299586;28;20456;-77
2023/03/09 11:51:29;;;;;;;11.30;5.38;;;;;;;2.50;100.00;99602.28;6288197;28;20429;-77
2023/03/09 11:54:36;;;;;;;12.07;5.55;;;;;;;2.53;100.00;99604.72;6293218;28;20051;-77
2023/03/09 11:57:40;;;;;;;14.65;5.25;;;;;;;2.56;100.00;99608.97;6283938;28;20437;-78
2023/03/09 12:00:46;;;;;;;11.20;5.38;;;;;;;2.65;100.00;99608.63;6300211;28;20154;-77
2023/03/09 12:03:53;;;;;;;9.63;5.00;;;;;;;2.66;100.00;99605.09;6293628;28;20135;-77
2023/03/09 12:07:00;;;;;;;12.43;5.32;;;;;;;2.72;100.00;99600.50;6283367;28;20102;-77
2023/03/09 12:10:08;;;;;;;11.85;5.57;;;;;;;2.73;100.00;99585.81;6295040;28;20059;-77
2023/03/09 12:13:18;;;;;;;17.20;6.10;;;;;;;2.58;100.00;99582.06;6292681;28;20048;-78
2023/03/09 12:16:21;;;;;;;;;;;;;;;2.54;100.00;99573.56;6280430;28;20045;-77
2023/03/09 12:19:28;;;;;;;15.43;6.88;;;;;;;2.64;100.00;99574.06;6289474;28;19921;-76
2023/03/09 12:22:34;;;;;;;13.10;5.90;;;;;;;2.63;100.00;99587.91;6292938;28;20441;-76
2023/03/09 12:25:36;;;;;;;10.88;5.68;;;;;;;2.69;100.00;99589.44;6284423;28;20436;-77
2023/03/09 12:28:39;;;;;;;16.60;6.65;;;;;;;2.81;100.00;99591.50;6300590;28;20055;-78
2023/03/09 12:31:41;;;;;;;13.32;5.80;;;;;;;2.80;100.00;99589.84;6299169;28;20152;-78
2023/03/09 12:34:44;;;;;;;19.83;6.80;;;;;;;2.88;100.00;99582.59;6300547;28;20040;-78
2023/03/09 12:37:56;;;;;;;12.30;5.35;;;;;;;2.94;100.00;99591.88;6283897;28;20356;-77
2023/03/09 12:40:58;;;;;;;14.30;5.97;;;;;;;2.96;100.00;99588.31;6285393;28;20057;-77
2023/03/09 12:44:00;;;;;;;12.30;5.65;;;;;;;3.00;100.00;99595.06;6300476;28;20056;-78
2023/03/09 12:47:03;;;;;;;13.70;5.80;;;;;;;2.97;100.00;99597.78;6292225;28;20041;-78
2023/03/09 12:50:21;;;;;;;10.98;5.75;;;;;;;2.92;100.00;99599.72;6289689;28;20425;-78
2023/03/09 12:53:25;;;;;;;10.07;5.23;;;;;;;2.85;100.00;99603.47;6280745;28;20055;-77
2023/03/09 12:56:28;;;;;;;10.85;5.22;;;;;;;2.78;100.00;99607.22;6285513;28;20052;-76
2023/03/09 12:59:30;;;;;;;16.70;5.78;;;;;;;2.84;100.00;99611.31;6298125;28;20181;-76
2023/03/09 13:02:36;;;;;;;22.83;6.57;;;;;;;2.92;100.00;99606.66;6298394;28;20055;-78
2023/03/09 13:05:43;;;;;;;12.23;6.15;;;;;;;2.99;100.00;99600.31;6276419;28;20079;-77
2023/03/09 13:08:52;;;;;;;11.75;4.93;;;;;;;2.98;100.00;99615.03;6284417;28;20447;-77
2023/03/09 13:12:03;;;;;;;11.52;4.88;;;;;;;2.93;100.00;99622.16;6286287;28;20036;-78
2023/03/09 13:15:20;;;;;;;12.82;6.20;;;;;;;2.94;100.00;99623.84;6289682;28;20051;-78
2023/03/09 13:18:25;;;;;;;17.50;7.13;;;;;;;2.93;100.00;99627.34;6291360;28;20127;-78
2023/03/09 13:21:40;;;;;;;17.70;6.30;;;;;;;2.88;100.00;99621.50;6289331;28;20052;-78
2023/03/09 13:24:43;;;;;;;16.20;5.80;;;;;;;2.87;100.00;99617.22;6287800;28;20403;-78
2023/03/09 13:27:46;;;;;;;13.20;6.13;;;;;;;2.92;100.00;99628.28;6288676;28;20057;-77
2023/03/09 13:30:48;;;;;;;8.27;4.28;;;;;;;2.92;100.00;99636.06;6291477;28;20060;-77
2023/03/09 13:33:51;;;;;;;12.18;5.70;;;;;;;2.91;100.00;99634.38;6284874;28;20174;-78
2023/03/09 13:36:56;;;;;;;14.38;5.80;;;;;;;2.85;100.00;99641.53;6299741;28;20086;-78
2023/03/09 13:40:00;;;;;;;17.02;5.85;;;;;;;2.94;100.00;99643.75;6291162;28;20360;-78
2023/03/09 13:43:12;;;;;;;11.85;5.68;;;;;;;2.92;100.00;99632.63;6297879;28;20053;-77
2023/03/09 13:46:22;;;;;;;14.75;5.32;;;;;;;2.99;100.00;99621.91;6278216;28;20043;-76
2023/03/09 13:49:25;;;;;;;12.75;5.50;;;;;;;3.05;100.00;99628.63;6299440;28;20036;-76
2023/03/09 13:52:28;;;;;;;11.75;6.00;;;;;;;3.02;100.00;99621.78;6299339;28;20392;-76
2023/03/09 13:55:30;;;;;;;11.80;5.13;;;;;;;3.04;100.00;99622.59;6299492;28;20044;-77
2023/03/09 13:58:41;;;;;;;11.70;5.47;;;;;;;3.02;100.00;99616.59;6291129;28;20055;-76
2023/03/09 14:01:43;;;;;;;17.77;6.93;;;;;;;3.03;100.00;99612.25;6294377;28;20045;-76
2023/03/09 14:04:46;;;;;;;13.90;5.60;;;;;;;2.98;100.00;99609.84;6298985;28;20052;-77
2023/03/09 14:07:52;;;;;;;11.80;5.90;;;;;;;2.92;100.00;99611.84;6295015;28;20388;-77
2023/03/09 14:10:54;;;;;;;24.77;7.40;;;;;;;2.94;100.00;99603.09;6286703;28;20053;-77
2023/03/09 14:14:04;;;;;;;16.20;6.53;;;;;;;2.90;100.00;99598.09;6296954;28;20056;-76
2023/03/09 14:17:17;;;;;;;16.83;6.72;;;;;;;2.92;100.00;99598.88;6290834;28;20076;-76
2023/03/09 14:20:21;;;;;;;15.93;5.85;;;;;;;2.93;100.00;99604.00;6286883;28;20170;-77